sensor_id;sensor_type;location;lat;lon;timestamp;P1;durP1;ratioP1;P2;durP2;ratioP2
8803;SDS011;4438;50.890;4.726;2023-04-23T00:00:19;23.53;;;21.07;;
8803;SDS011;4438;50.890;4.726;2023-04-23T00:02:46;23.57;;;21.07;;
8803;SDS011;4438;50.890;4.726;2023-04-23T00:05:14;25.63;;;23.03;;
8803;SDS011;4438;50.890;4.726;2023-04-23T00:07:41;24.53;;;21.87;;
8803;SDS011;4438;50.890;4.726;2023-04-23T00:10:07;24.83;;;22.33;;
8803;SDS011;4438;50.890;4.726;2023-04-23T00:12:34;25.37;;;22.67;;
8803;SDS011;4438;50.890;4.726;2023-04-23T00:15:00;25.63;;;21.97;;
8803;SDS011;4438;50.890;4.726;2023-04-23T00:17:27;25.00;;;22.43;;
8803;SDS011;4438;50.890;4.726;2023-04-23T00:19:53;22.87;;;20.57;;
8803;SDS011;4438;50.890;4.726;2023-04-23T00:22:19;24.13;;;21.53;;
8803;SDS011;4438;50.890;4.726;2023-04-23T00:24:46;23.37;;;20.97;;
8803;SDS011;4438;50.890;4.726;2023-04-23T00:27:12;24.50;;;22.00;;
8803;SDS011;4438;50.890;4.726;2023-04-23T00:29:38;23.57;;;21.20;;
8803;SDS011;4438;50.890;4.726;2023-04-23T00:32:04;23.47;;;21.07;;
8803;SDS011;4438;50.890;4.726;2023-04-23T00:34:31;21.77;;;19.37;;
8803;SDS011;4438;50.890;4.726;2023-04-23T00:36:57;23.10;;;20.63;;
8803;SDS011;4438;50.890;4.726;2023-04-23T00:39:23;22.60;;;20.30;;
8803;SDS011;4438;50.890;4.726;2023-04-23T00:41:49;23.03;;;20.73;;
8803;SDS011;4438;50.890;4.726;2023-04-23T00:44:15;21.67;;;19.47;;
8803;SDS011;4438;50.890;4.726;2023-04-23T00:46:42;23.30;;;20.90;;
8803;SDS011;4438;50.890;4.726;2023-04-23T00:49:08;21.10;;;18.90;;
8803;SDS011;4438;50.890;4.726;2023-04-23T00:51:34;22.47;;;20.17;;
8803;SDS011;4438;50.890;4.726;2023-04-23T00:54:00;21.60;;;19.40;;
8803;SDS011;4438;50.890;4.726;2023-04-23T00:56:27;22.23;;;19.97;;
8803;SDS011;4438;50.890;4.726;2023-04-23T00:58:53;20.67;;;18.57;;
8803;SDS011;4438;50.890;4.726;2023-04-23T01:01:20;22.27;;;20.03;;
8803;SDS011;4438;50.890;4.726;2023-04-23T01:03:47;22.40;;;20.10;;
8803;SDS011;4438;50.890;4.726;2023-04-23T01:06:14;21.73;;;19.50;;
8803;SDS011;4438;50.890;4.726;2023-04-23T01:08:41;21.97;;;19.67;;
8803;SDS011;4438;50.890;4.726;2023-04-23T01:11:08;21.07;;;18.97;;
8803;SDS011;4438;50.890;4.726;2023-04-23T01:13:34;20.67;;;18.50;;
8803;SDS011;4438;50.890;4.726;2023-04-23T01:16:01;21.53;;;19.33;;
8803;SDS011;4438;50.890;4.726;2023-04-23T01:18:27;21.00;;;19.00;;
8803;SDS011;4438;50.890;4.726;2023-04-23T01:20:54;21.53;;;19.27;;
8803;SDS011;4438;50.890;4.726;2023-04-23T01:23:20;20.27;;;18.17;;
8803;SDS011;4438;50.890;4.726;2023-04-23T01:25:46;20.97;;;18.87;;
8803;SDS011;4438;50.890;4.726;2023-04-23T01:28:13;20.13;;;18.13;;
8803;SDS011;4438;50.890;4.726;2023-04-23T01:30:41;19.77;;;17.77;;
8803;SDS011;4438;50.890;4.726;2023-04-23T01:33:07;19.53;;;17.50;;
8803;SDS011;4438;50.890;4.726;2023-04-23T01:35:34;20.57;;;18.50;;
8803;SDS011;4438;50.890;4.726;2023-04-23T01:38:01;20.17;;;18.07;;
8803;SDS011;4438;50.890;4.726;2023-04-23T01:40:28;20.17;;;18.10;;
8803;SDS011;4438;50.890;4.726;2023-04-23T01:42:54;19.43;;;17.53;;
8803;SDS011;4438;50.890;4.726;2023-04-23T01:45:21;17.90;;;16.10;;
8803;SDS011;4438;50.890;4.726;2023-04-23T01:47:47;19.90;;;17.90;;
8803;SDS011;4438;50.890;4.726;2023-04-23T01:50:13;20.80;;;17.73;;
8803;SDS011;4438;50.890;4.726;2023-04-23T01:52:40;18.37;;;16.57;;
8803;SDS011;4438;50.890;4.726;2023-04-23T01:55:06;18.93;;;17.03;;
8803;SDS011;4438;50.890;4.726;2023-04-23T01:57:33;18.83;;;16.83;;
8803;SDS011;4438;50.890;4.726;2023-04-23T02:00:01;18.50;;;16.67;;
8803;SDS011;4438;50.890;4.726;2023-04-23T02:02:32;17.97;;;16.27;;
8803;SDS011;4438;50.890;4.726;2023-04-23T02:04:58;18.67;;;16.77;;
8803;SDS011;4438;50.890;4.726;2023-04-23T02:07:28;18.17;;;16.37;;
8803;SDS011;4438;50.890;4.726;2023-04-23T02:09:55;18.03;;;16.23;;
8803;SDS011;4438;50.890;4.726;2023-04-23T02:12:21;18.93;;;16.93;;
8803;SDS011;4438;50.890;4.726;2023-04-23T02:14:47;17.30;;;15.50;;
8803;SDS011;4438;50.890;4.726;2023-04-23T02:17:13;18.23;;;16.30;;
8803;SDS011;4438;50.890;4.726;2023-04-23T02:19:39;17.90;;;16.20;;
8803;SDS011;4438;50.890;4.726;2023-04-23T02:22:05;16.43;;;14.83;;
8803;SDS011;4438;50.890;4.726;2023-04-23T02:24:33;17.47;;;15.67;;
8803;SDS011;4438;50.890;4.726;2023-04-23T02:26:59;18.07;;;16.17;;
8803;SDS011;4438;50.890;4.726;2023-04-23T02:29:26;15.83;;;14.33;;
8803;SDS011;4438;50.890;4.726;2023-04-23T02:31:52;16.07;;;14.47;;
8803;SDS011;4438;50.890;4.726;2023-04-23T02:34:18;17.23;;;15.43;;
8803;SDS011;4438;50.890;4.726;2023-04-23T02:36:44;16.20;;;14.50;;
8803;SDS011;4438;50.890;4.726;2023-04-23T02:39:10;15.67;;;14.17;;
8803;SDS011;4438;50.890;4.726;2023-04-23T02:41:36;16.07;;;14.50;;
8803;SDS011;4438;50.890;4.726;2023-04-23T02:44:02;16.20;;;14.60;;
8803;SDS011;4438;50.890;4.726;2023-04-23T02:46:28;17.17;;;15.43;;
8803;SDS011;4438;50.890;4.726;2023-04-23T02:48:55;15.67;;;14.17;;
8803;SDS011;4438;50.890;4.726;2023-04-23T02:51:22;16.03;;;14.60;;
8803;SDS011;4438;50.890;4.726;2023-04-23T02:53:48;15.47;;;14.00;;
8803;SDS011;4438;50.890;4.726;2023-04-23T02:56:14;15.20;;;13.70;;
8803;SDS011;4438;50.890;4.726;2023-04-23T02:58:40;14.07;;;12.77;;
8803;SDS011;4438;50.890;4.726;2023-04-23T03:01:06;15.57;;;14.07;;
8803;SDS011;4438;50.890;4.726;2023-04-23T03:03:32;14.30;;;12.90;;
8803;SDS011;4438;50.890;4.726;2023-04-23T03:05:59;15.60;;;14.10;;
8803;SDS011;4438;50.890;4.726;2023-04-23T03:08:26;15.00;;;13.60;;
8803;SDS011;4438;50.890;4.726;2023-04-23T03:10:52;14.00;;;12.60;;
8803;SDS011;4438;50.890;4.726;2023-04-23T03:13:18;14.00;;;12.70;;
8803;SDS011;4438;50.890;4.726;2023-04-23T03:15:44;14.53;;;13.13;;
8803;SDS011;4438;50.890;4.726;2023-04-23T03:18:10;13.33;;;12.03;;
8803;SDS011;4438;50.890;4.726;2023-04-23T03:20:36;14.00;;;12.70;;
8803;SDS011;4438;50.890;4.726;2023-04-23T03:23:02;13.60;;;12.30;;
8803;SDS011;4438;50.890;4.726;2023-04-23T03:25:32;14.40;;;12.93;;
8803;SDS011;4438;50.890;4.726;2023-04-23T03:27:58;13.47;;;12.27;;
8803;SDS011;4438;50.890;4.726;2023-04-23T03:30:25;14.60;;;12.93;;
8803;SDS011;4438;50.890;4.726;2023-04-23T03:32:54;13.17;;;11.90;;
8803;SDS011;4438;50.890;4.726;2023-04-23T03:35:21;14.00;;;12.60;;
8803;SDS011;4438;50.890;4.726;2023-04-23T03:37:47;13.23;;;11.93;;
8803;SDS011;4438;50.890;4.726;2023-04-23T03:40:13;13.93;;;12.63;;
8803;SDS011;4438;50.890;4.726;2023-04-23T03:42:39;13.90;;;12.40;;
8803;SDS011;4438;50.890;4.726;2023-04-23T03:45:05;13.73;;;12.40;;
8803;SDS011;4438;50.890;4.726;2023-04-23T03:47:32;13.63;;;12.23;;
8803;SDS011;4438;50.890;4.726;2023-04-23T03:49:58;13.53;;;12.23;;
8803;SDS011;4438;50.890;4.726;2023-04-23T03:52:24;14.53;;;13.03;;
8803;SDS011;4438;50.890;4.726;2023-04-23T03:54:50;14.43;;;13.13;;
8803;SDS011;4438;50.890;4.726;2023-04-23T03:57:16;14.40;;;12.90;;
8803;SDS011;4438;50.890;4.726;2023-04-23T03:59:43;14.00;;;12.57;;
8803;SDS011;4438;50.890;4.726;2023-04-23T04:02:09;16.93;;;13.27;;
8803;SDS011;4438;50.890;4.726;2023-04-23T04:04:35;14.93;;;13.27;;
8803;SDS011;4438;50.890;4.726;2023-04-23T04:07:01;15.13;;;13.60;;
8803;SDS011;4438;50.890;4.726;2023-04-23T04:09:27;14.53;;;13.13;;
8803;SDS011;4438;50.890;4.726;2023-04-23T04:11:54;13.87;;;12.53;;
8803;SDS011;4438;50.890;4.726;2023-04-23T04:14:20;14.80;;;13.20;;
8803;SDS011;4438;50.890;4.726;2023-04-23T04:16:47;14.07;;;12.67;;
8803;SDS011;4438;50.890;4.726;2023-04-23T04:19:13;14.73;;;12.50;;
8803;SDS011;4438;50.890;4.726;2023-04-23T04:21:40;13.37;;;12.00;;
8803;SDS011;4438;50.890;4.726;2023-04-23T04:24:06;13.00;;;11.70;;
8803;SDS011;4438;50.890;4.726;2023-04-23T04:26:32;13.13;;;11.93;;
8803;SDS011;4438;50.890;4.726;2023-04-23T04:28:59;13.17;;;11.87;;
8803;SDS011;4438;50.890;4.726;2023-04-23T04:31:28;13.43;;;11.73;;
8803;SDS011;4438;50.890;4.726;2023-04-23T04:33:55;12.13;;;11.03;;
8803;SDS011;4438;50.890;4.726;2023-04-23T04:36:21;12.63;;;11.33;;
8803;SDS011;4438;50.890;4.726;2023-04-23T04:38:49;12.53;;;11.00;;
8803;SDS011;4438;50.890;4.726;2023-04-23T04:41:18;12.03;;;10.87;;
8803;SDS011;4438;50.890;4.726;2023-04-23T04:43:45;11.60;;;10.40;;
8803;SDS011;4438;50.890;4.726;2023-04-23T04:46:12;11.97;;;10.10;;
8803;SDS011;4438;50.890;4.726;2023-04-23T04:48:39;11.67;;;10.33;;
8803;SDS011;4438;50.890;4.726;2023-04-23T04:51:06;11.93;;;10.73;;
8803;SDS011;4438;50.890;4.726;2023-04-23T04:53:32;14.37;;;11.23;;
8803;SDS011;4438;50.890;4.726;2023-04-23T04:56:00;12.33;;;10.77;;
8803;SDS011;4438;50.890;4.726;2023-04-23T04:58:26;11.27;;;10.17;;
8803;SDS011;4438;50.890;4.726;2023-04-23T05:00:52;12.57;;;11.23;;
8803;SDS011;4438;50.890;4.726;2023-04-23T05:03:18;12.23;;;11.03;;
8803;SDS011;4438;50.890;4.726;2023-04-23T05:05:45;11.50;;;10.30;;
8803;SDS011;4438;50.890;4.726;2023-04-23T05:08:12;11.33;;;10.30;;
8803;SDS011;4438;50.890;4.726;2023-04-23T05:10:43;11.03;;;10.03;;
8803;SDS011;4438;50.890;4.726;2023-04-23T05:13:09;10.83;;;9.70;;
8803;SDS011;4438;50.890;4.726;2023-04-23T05:15:35;11.13;;;9.83;;
8803;SDS011;4438;50.890;4.726;2023-04-23T05:18:02;11.03;;;9.93;;
8803;SDS011;4438;50.890;4.726;2023-04-23T05:20:29;11.37;;;10.10;;
8803;SDS011;4438;50.890;4.726;2023-04-23T05:22:55;11.13;;;10.03;;
8803;SDS011;4438;50.890;4.726;2023-04-23T05:25:23;12.90;;;10.30;;
8803;SDS011;4438;50.890;4.726;2023-04-23T05:27:49;11.53;;;10.33;;
8803;SDS011;4438;50.890;4.726;2023-04-23T05:30:16;10.63;;;9.60;;
8803;SDS011;4438;50.890;4.726;2023-04-23T05:32:42;10.60;;;9.37;;
8803;SDS011;4438;50.890;4.726;2023-04-23T05:35:08;10.30;;;9.30;;
8803;SDS011;4438;50.890;4.726;2023-04-23T05:37:34;9.93;;;8.93;;
8803;SDS011;4438;50.890;4.726;2023-04-23T05:40:01;12.07;;;9.63;;
8803;SDS011;4438;50.890;4.726;2023-04-23T05:42:28;11.37;;;8.97;;
8803;SDS011;4438;50.890;4.726;2023-04-23T05:44:54;10.63;;;8.83;;
8803;SDS011;4438;50.890;4.726;2023-04-23T05:47:20;10.70;;;8.83;;
8803;SDS011;4438;50.890;4.726;2023-04-23T05:49:46;10.97;;;8.30;;
8803;SDS011;4438;50.890;4.726;2023-04-23T05:52:12;10.30;;;8.90;;
8803;SDS011;4438;50.890;4.726;2023-04-23T05:54:38;9.67;;;8.70;;
8803;SDS011;4438;50.890;4.726;2023-04-23T05:57:04;10.47;;;8.77;;
8803;SDS011;4438;50.890;4.726;2023-04-23T05:59:31;10.30;;;8.50;;
8803;SDS011;4438;50.890;4.726;2023-04-23T06:01:57;12.03;;;8.80;;
8803;SDS011;4438;50.890;4.726;2023-04-23T06:04:23;9.67;;;8.30;;
8803;SDS011;4438;50.890;4.726;2023-04-23T06:06:49;9.60;;;8.60;;
8803;SDS011;4438;50.890;4.726;2023-04-23T06:09:15;10.83;;;8.40;;
8803;SDS011;4438;50.890;4.726;2023-04-23T06:11:41;9.07;;;8.17;;
8803;SDS011;4438;50.890;4.726;2023-04-23T06:14:07;11.07;;;8.23;;
8803;SDS011;4438;50.890;4.726;2023-04-23T06:16:33;9.47;;;7.73;;
8803;SDS011;4438;50.890;4.726;2023-04-23T06:18:59;8.27;;;6.87;;
8803;SDS011;4438;50.890;4.726;2023-04-23T06:21:25;8.60;;;7.47;;
8803;SDS011;4438;50.890;4.726;2023-04-23T06:23:51;10.00;;;7.60;;
8803;SDS011;4438;50.890;4.726;2023-04-23T06:26:18;7.33;;;6.63;;
8803;SDS011;4438;50.890;4.726;2023-04-23T06:28:44;9.70;;;6.90;;
8803;SDS011;4438;50.890;4.726;2023-04-23T06:31:11;8.83;;;7.03;;
8803;SDS011;4438;50.890;4.726;2023-04-23T06:33:37;8.00;;;6.57;;
8803;SDS011;4438;50.890;4.726;2023-04-23T06:36:04;8.57;;;6.60;;
8803;SDS011;4438;50.890;4.726;2023-04-23T06:38:30;7.43;;;6.67;;
8803;SDS011;4438;50.890;4.726;2023-04-23T06:40:56;8.03;;;6.27;;
8803;SDS011;4438;50.890;4.726;2023-04-23T06:43:23;8.80;;;6.37;;
8803;SDS011;4438;50.890;4.726;2023-04-23T06:45:49;8.40;;;6.33;;
8803;SDS011;4438;50.890;4.726;2023-04-23T06:48:15;7.67;;;6.43;;
8803;SDS011;4438;50.890;4.726;2023-04-23T06:50:42;9.20;;;6.63;;
8803;SDS011;4438;50.890;4.726;2023-04-23T06:53:09;6.87;;;5.90;;
8803;SDS011;4438;50.890;4.726;2023-04-23T06:55:35;8.43;;;5.83;;
8803;SDS011;4438;50.890;4.726;2023-04-23T06:58:01;8.27;;;5.13;;
8803;SDS011;4438;50.890;4.726;2023-04-23T07:00:27;7.83;;;5.60;;
8803;SDS011;4438;50.890;4.726;2023-04-23T07:02:53;6.13;;;5.03;;
8803;SDS011;4438;50.890;4.726;2023-04-23T07:05:20;12.00;;;6.20;;
8803;SDS011;4438;50.890;4.726;2023-04-23T07:07:46;8.13;;;5.00;;
8803;SDS011;4438;50.890;4.726;2023-04-23T07:10:12;6.97;;;4.60;;
8803;SDS011;4438;50.890;4.726;2023-04-23T07:12:38;8.67;;;4.70;;
8803;SDS011;4438;50.890;4.726;2023-04-23T07:15:05;6.40;;;4.40;;
8803;SDS011;4438;50.890;4.726;2023-04-23T07:17:32;5.53;;;4.93;;
8803;SDS011;4438;50.890;4.726;2023-04-23T07:19:59;6.43;;;4.87;;
8803;SDS011;4438;50.890;4.726;2023-04-23T07:22:28;7.60;;;4.40;;
8803;SDS011;4438;50.890;4.726;2023-04-23T07:24:54;6.23;;;4.23;;
8803;SDS011;4438;50.890;4.726;2023-04-23T07:27:20;8.07;;;4.40;;
8803;SDS011;4438;50.890;4.726;2023-04-23T07:29:47;7.50;;;4.60;;
8803;SDS011;4438;50.890;4.726;2023-04-23T07:32:13;5.60;;;4.40;;
8803;SDS011;4438;50.890;4.726;2023-04-23T07:34:39;7.10;;;4.73;;
8803;SDS011;4438;50.890;4.726;2023-04-23T07:37:05;7.67;;;4.77;;
8803;SDS011;4438;50.890;4.726;2023-04-23T07:39:31;7.40;;;4.33;;
8803;SDS011;4438;50.890;4.726;2023-04-23T07:41:57;6.13;;;4.07;;
8803;SDS011;4438;50.890;4.726;2023-04-23T07:44:23;7.80;;;4.73;;
8803;SDS011;4438;50.890;4.726;2023-04-23T07:46:50;6.47;;;4.30;;
8803;SDS011;4438;50.890;4.726;2023-04-23T07:49:16;7.03;;;4.07;;
8803;SDS011;4438;50.890;4.726;2023-04-23T07:51:42;6.20;;;3.93;;
8803;SDS011;4438;50.890;4.726;2023-04-23T07:54:08;5.07;;;3.83;;
8803;SDS011;4438;50.890;4.726;2023-04-23T07:56:35;6.13;;;4.03;;
8803;SDS011;4438;50.890;4.726;2023-04-23T07:59:01;5.97;;;3.90;;
8803;SDS011;4438;50.890;4.726;2023-04-23T08:01:30;5.73;;;4.17;;
8803;SDS011;4438;50.890;4.726;2023-04-23T08:03:57;6.43;;;3.90;;
8803;SDS011;4438;50.890;4.726;2023-04-23T08:06:24;5.97;;;4.30;;
8803;SDS011;4438;50.890;4.726;2023-04-23T08:08:51;7.00;;;4.10;;
8803;SDS011;4438;50.890;4.726;2023-04-23T08:11:19;6.27;;;3.67;;
8803;SDS011;4438;50.890;4.726;2023-04-23T08:13:46;6.43;;;3.90;;
8803;SDS011;4438;50.890;4.726;2023-04-23T08:16:12;5.73;;;3.60;;
8803;SDS011;4438;50.890;4.726;2023-04-23T08:18:38;7.20;;;4.13;;
8803;SDS011;4438;50.890;4.726;2023-04-23T08:21:04;6.23;;;3.93;;
8803;SDS011;4438;50.890;4.726;2023-04-23T08:23:30;5.80;;;4.20;;
8803;SDS011;4438;50.890;4.726;2023-04-23T08:25:56;6.40;;;3.83;;
8803;SDS011;4438;50.890;4.726;2023-04-23T08:28:22;6.70;;;4.03;;
8803;SDS011;4438;50.890;4.726;2023-04-23T08:30:48;8.37;;;4.00;;
8803;SDS011;4438;50.890;4.726;2023-04-23T08:33:15;6.63;;;3.77;;
8803;SDS011;4438;50.890;4.726;2023-04-23T08:35:41;4.17;;;3.50;;
8803;SDS011;4438;50.890;4.726;2023-04-23T08:38:07;6.53;;;3.70;;
8803;SDS011;4438;50.890;4.726;2023-04-23T08:40:34;6.37;;;3.70;;
8803;SDS011;4438;50.890;4.726;2023-04-23T08:43:02;4.77;;;3.30;;
8803;SDS011;4438;50.890;4.726;2023-04-23T08:45:31;5.90;;;3.60;;
8803;SDS011;4438;50.890;4.726;2023-04-23T08:47:58;5.60;;;3.10;;
8803;SDS011;4438;50.890;4.726;2023-04-23T08:50:25;5.87;;;3.10;;
8803;SDS011;4438;50.890;4.726;2023-04-23T08:52:54;5.37;;;3.20;;
8803;SDS011;4438;50.890;4.726;2023-04-23T08:55:20;5.37;;;3.23;;
8803;SDS011;4438;50.890;4.726;2023-04-23T08:57:47;4.93;;;3.00;;
8803;SDS011;4438;50.890;4.726;2023-04-23T09:00:14;5.93;;;3.10;;
8803;SDS011;4438;50.890;4.726;2023-04-23T09:02:44;7.23;;;3.40;;
8803;SDS011;4438;50.890;4.726;2023-04-23T09:05:11;5.10;;;3.40;;
8803;SDS011;4438;50.890;4.726;2023-04-23T09:07:37;5.50;;;3.07;;
8803;SDS011;4438;50.890;4.726;2023-04-23T09:10:04;3.73;;;2.70;;
8803;SDS011;4438;50.890;4.726;2023-04-23T09:12:30;7.57;;;2.90;;
8803;SDS011;4438;50.890;4.726;2023-04-23T09:14:57;5.00;;;3.10;;
8803;SDS011;4438;50.890;4.726;2023-04-23T09:17:24;3.77;;;2.50;;
8803;SDS011;4438;50.890;4.726;2023-04-23T09:19:53;6.67;;;3.40;;
8803;SDS011;4438;50.890;4.726;2023-04-23T09:22:36;6.90;;;3.30;;
8803;SDS011;4438;50.890;4.726;2023-04-23T09:25:03;7.57;;;3.40;;
8803;SDS011;4438;50.890;4.726;2023-04-23T09:27:29;3.97;;;2.80;;
8803;SDS011;4438;50.890;4.726;2023-04-23T09:29:55;3.00;;;2.57;;
8803;SDS011;4438;50.890;4.726;2023-04-23T09:32:30;5.10;;;2.73;;
8803;SDS011;4438;50.890;4.726;2023-04-23T09:35:03;5.53;;;2.97;;
8803;SDS011;4438;50.890;4.726;2023-04-23T09:37:29;5.70;;;2.90;;
8803;SDS011;4438;50.890;4.726;2023-04-23T09:39:57;5.37;;;3.03;;
8803;SDS011;4438;50.890;4.726;2023-04-23T09:42:23;4.10;;;2.60;;
8803;SDS011;4438;50.890;4.726;2023-04-23T09:44:55;4.80;;;2.60;;
8803;SDS011;4438;50.890;4.726;2023-04-23T09:47:21;2.80;;;2.40;;
8803;SDS011;4438;50.890;4.726;2023-04-23T09:49:48;4.97;;;2.80;;
8803;SDS011;4438;50.890;4.726;2023-04-23T09:52:15;3.80;;;2.90;;
8803;SDS011;4438;50.890;4.726;2023-04-23T09:54:41;4.83;;;2.70;;
8803;SDS011;4438;50.890;4.726;2023-04-23T09:57:07;4.43;;;2.50;;
8803;SDS011;4438;50.890;4.726;2023-04-23T09:59:34;5.13;;;2.57;;
8803;SDS011;4438;50.890;4.726;2023-04-23T10:02:04;3.67;;;2.33;;
8803;SDS011;4438;50.890;4.726;2023-04-23T10:04:30;5.30;;;2.53;;
8803;SDS011;4438;50.890;4.726;2023-04-23T10:06:58;3.67;;;2.37;;
8803;SDS011;4438;50.890;4.726;2023-04-23T10:09:24;5.13;;;2.70;;
8803;SDS011;4438;50.890;4.726;2023-04-23T10:11:52;5.07;;;2.60;;
8803;SDS011;4438;50.890;4.726;2023-04-23T10:14:22;3.97;;;2.47;;
8803;SDS011;4438;50.890;4.726;2023-04-23T10:16:49;6.00;;;2.63;;
8803;SDS011;4438;50.890;4.726;2023-04-23T10:19:20;4.30;;;2.53;;
8803;SDS011;4438;50.890;4.726;2023-04-23T10:22:03;5.27;;;2.97;;
8803;SDS011;4438;50.890;4.726;2023-04-23T10:24:32;4.47;;;2.33;;
8803;SDS011;4438;50.890;4.726;2023-04-23T10:26:59;5.90;;;2.50;;
8803;SDS011;4438;50.890;4.726;2023-04-23T10:29:35;6.23;;;2.53;;
8803;SDS011;4438;50.890;4.726;2023-04-23T10:32:02;4.73;;;2.40;;
8803;SDS011;4438;50.890;4.726;2023-04-23T10:34:29;4.93;;;2.43;;
8803;SDS011;4438;50.890;4.726;2023-04-23T10:36:56;6.57;;;2.70;;
8803;SDS011;4438;50.890;4.726;2023-04-23T10:39:26;5.93;;;2.57;;
8803;SDS011;4438;50.890;4.726;2023-04-23T10:41:53;5.10;;;2.53;;
8803;SDS011;4438;50.890;4.726;2023-04-23T10:44:20;4.30;;;2.10;;
8803;SDS011;4438;50.890;4.726;2023-04-23T10:46:50;5.27;;;2.00;;
8803;SDS011;4438;50.890;4.726;2023-04-23T10:49:17;3.70;;;1.97;;
8803;SDS011;4438;50.890;4.726;2023-04-23T10:51:46;5.30;;;2.30;;
8803;SDS011;4438;50.890;4.726;2023-04-23T10:54:15;4.20;;;2.43;;
8803;SDS011;4438;50.890;4.726;2023-04-23T10:56:42;5.10;;;2.13;;
8803;SDS011;4438;50.890;4.726;2023-04-23T10:59:18;4.63;;;2.10;;
8803;SDS011;4438;50.890;4.726;2023-04-23T11:01:48;5.80;;;2.60;;
8803;SDS011;4438;50.890;4.726;2023-04-23T11:06:53;6.40;;;2.40;;
8803;SDS011;4438;50.890;4.726;2023-04-23T11:09:39;6.40;;;2.63;;
8803;SDS011;4438;50.890;4.726;2023-04-23T11:12:39;5.97;;;2.20;;
8803;SDS011;4438;50.890;4.726;2023-04-23T11:14:58;4.33;;;2.37;;
8803;SDS011;4438;50.890;4.726;2023-04-23T11:20:04;5.67;;;2.30;;
8803;SDS011;4438;50.890;4.726;2023-04-23T11:22:37;4.73;;;2.23;;
8803;SDS011;4438;50.890;4.726;2023-04-23T11:25:04;5.03;;;2.27;;
8803;SDS011;4438;50.890;4.726;2023-04-23T11:27:33;4.70;;;2.17;;
8803;SDS011;4438;50.890;4.726;2023-04-23T11:30:00;3.63;;;2.30;;
8803;SDS011;4438;50.890;4.726;2023-04-23T11:32:26;4.80;;;2.27;;
8803;SDS011;4438;50.890;4.726;2023-04-23T11:34:52;3.33;;;2.60;;
8803;SDS011;4438;50.890;4.726;2023-04-23T11:37:21;5.17;;;2.50;;
8803;SDS011;4438;50.890;4.726;2023-04-23T11:39:47;4.17;;;2.30;;
8803;SDS011;4438;50.890;4.726;2023-04-23T11:42:15;4.33;;;2.27;;
8803;SDS011;4438;50.890;4.726;2023-04-23T11:44:44;4.17;;;2.30;;
8803;SDS011;4438;50.890;4.726;2023-04-23T11:47:12;3.00;;;2.00;;
8803;SDS011;4438;50.890;4.726;2023-04-23T11:49:39;5.77;;;3.07;;
8803;SDS011;4438;50.890;4.726;2023-04-23T11:52:06;6.93;;;4.10;;
8803;SDS011;4438;50.890;4.726;2023-04-23T11:54:33;13.33;;;8.70;;
8803;SDS011;4438;50.890;4.726;2023-04-23T11:57:00;9.17;;;6.07;;
8803;SDS011;4438;50.890;4.726;2023-04-23T11:59:27;5.97;;;3.17;;
8803;SDS011;4438;50.890;4.726;2023-04-23T12:01:54;11.07;;;7.83;;
8803;SDS011;4438;50.890;4.726;2023-04-23T12:04:22;3.77;;;2.47;;
8803;SDS011;4438;50.890;4.726;2023-04-23T12:06:49;6.03;;;3.00;;
8803;SDS011;4438;50.890;4.726;2023-04-23T12:09:16;6.80;;;3.70;;
8803;SDS011;4438;50.890;4.726;2023-04-23T12:11:42;5.37;;;2.50;;
8803;SDS011;4438;50.890;4.726;2023-04-23T12:14:10;5.90;;;2.37;;
8803;SDS011;4438;50.890;4.726;2023-04-23T12:16:40;3.37;;;2.13;;
8803;SDS011;4438;50.890;4.726;2023-04-23T12:21:55;5.60;;;2.30;;
8803;SDS011;4438;50.890;4.726;2023-04-23T12:24:22;3.83;;;2.10;;
8803;SDS011;4438;50.890;4.726;2023-04-23T12:26:50;4.27;;;2.20;;
8803;SDS011;4438;50.890;4.726;2023-04-23T12:29:18;3.93;;;2.10;;
8803;SDS011;4438;50.890;4.726;2023-04-23T12:31:45;4.63;;;2.10;;
8803;SDS011;4438;50.890;4.726;2023-04-23T12:34:11;4.27;;;2.00;;
8803;SDS011;4438;50.890;4.726;2023-04-23T12:36:42;3.07;;;1.93;;
8803;SDS011;4438;50.890;4.726;2023-04-23T12:39:22;3.07;;;1.80;;
8803;SDS011;4438;50.890;4.726;2023-04-23T12:41:52;5.87;;;2.10;;
8803;SDS011;4438;50.890;4.726;2023-04-23T12:44:19;4.37;;;2.10;;
8803;SDS011;4438;50.890;4.726;2023-04-23T12:49:21;5.73;;;2.23;;
8803;SDS011;4438;50.890;4.726;2023-04-23T12:51:47;3.90;;;2.17;;
8803;SDS011;4438;50.890;4.726;2023-04-23T12:54:13;4.80;;;2.20;;
8803;SDS011;4438;50.890;4.726;2023-04-23T12:56:39;3.47;;;2.07;;
8803;SDS011;4438;50.890;4.726;2023-04-23T12:59:05;4.03;;;2.33;;
8803;SDS011;4438;50.890;4.726;2023-04-23T13:01:32;6.03;;;2.40;;
8803;SDS011;4438;50.890;4.726;2023-04-23T13:03:58;4.57;;;2.00;;
8803;SDS011;4438;50.890;4.726;2023-04-23T13:06:24;4.90;;;2.60;;
8803;SDS011;4438;50.890;4.726;2023-04-23T13:08:51;5.23;;;2.60;;
8803;SDS011;4438;50.890;4.726;2023-04-23T13:11:19;3.90;;;2.63;;
8803;SDS011;4438;50.890;4.726;2023-04-23T13:13:45;5.40;;;2.53;;
8803;SDS011;4438;50.890;4.726;2023-04-23T13:16:11;4.43;;;2.50;;
8803;SDS011;4438;50.890;4.726;2023-04-23T13:18:37;3.33;;;2.13;;
8803;SDS011;4438;50.890;4.726;2023-04-23T13:21:03;3.77;;;2.40;;
8803;SDS011;4438;50.890;4.726;2023-04-23T13:23:30;5.50;;;2.43;;
8803;SDS011;4438;50.890;4.726;2023-04-23T13:25:56;3.50;;;2.30;;
8803;SDS011;4438;50.890;4.726;2023-04-23T13:28:22;4.10;;;2.60;;
8803;SDS011;4438;50.890;4.726;2023-04-23T13:30:48;2.70;;;2.13;;
8803;SDS011;4438;50.890;4.726;2023-04-23T13:33:14;5.70;;;2.67;;
8803;SDS011;4438;50.890;4.726;2023-04-23T13:35:41;3.43;;;2.30;;
8803;SDS011;4438;50.890;4.726;2023-04-23T13:38:07;4.60;;;2.63;;
8803;SDS011;4438;50.890;4.726;2023-04-23T13:40:33;5.47;;;2.33;;
8803;SDS011;4438;50.890;4.726;2023-04-23T13:43:00;4.27;;;2.60;;
8803;SDS011;4438;50.890;4.726;2023-04-23T13:45:26;4.43;;;2.50;;
8803;SDS011;4438;50.890;4.726;2023-04-23T13:47:52;3.33;;;2.37;;
8803;SDS011;4438;50.890;4.726;2023-04-23T13:50:18;4.40;;;2.53;;
8803;SDS011;4438;50.890;4.726;2023-04-23T13:52:44;5.37;;;2.93;;
8803;SDS011;4438;50.890;4.726;2023-04-23T13:55:12;4.17;;;2.70;;
8803;SDS011;4438;50.890;4.726;2023-04-23T13:57:38;4.10;;;2.90;;
8803;SDS011;4438;50.890;4.726;2023-04-23T14:00:04;4.07;;;3.00;;
8803;SDS011;4438;50.890;4.726;2023-04-23T14:02:31;5.63;;;3.23;;
8803;SDS011;4438;50.890;4.726;2023-04-23T14:04:57;4.93;;;3.37;;
8803;SDS011;4438;50.890;4.726;2023-04-23T14:07:23;4.07;;;3.03;;
8803;SDS011;4438;50.890;4.726;2023-04-23T14:09:49;4.50;;;3.30;;
8803;SDS011;4438;50.890;4.726;2023-04-23T14:12:17;5.40;;;3.47;;
8803;SDS011;4438;50.890;4.726;2023-04-23T14:14:43;6.60;;;3.60;;
8803;SDS011;4438;50.890;4.726;2023-04-23T14:17:09;3.80;;;3.40;;
8803;SDS011;4438;50.890;4.726;2023-04-23T14:19:35;4.80;;;3.33;;
8803;SDS011;4438;50.890;4.726;2023-04-23T14:22:02;4.57;;;3.50;;
8803;SDS011;4438;50.890;4.726;2023-04-23T14:24:32;5.17;;;3.40;;
8803;SDS011;4438;50.890;4.726;2023-04-23T14:26:58;3.73;;;3.10;;
8803;SDS011;4438;50.890;4.726;2023-04-23T14:29:29;5.80;;;3.27;;
8803;SDS011;4438;50.890;4.726;2023-04-23T14:31:59;4.47;;;3.07;;
8803;SDS011;4438;50.890;4.726;2023-04-23T14:34:25;4.40;;;2.97;;
8803;SDS011;4438;50.890;4.726;2023-04-23T14:36:52;6.43;;;3.43;;
8803;SDS011;4438;50.890;4.726;2023-04-23T14:39:18;3.50;;;3.00;;
8803;SDS011;4438;50.890;4.726;2023-04-23T14:41:44;4.70;;;3.30;;
8803;SDS011;4438;50.890;4.726;2023-04-23T14:44:10;4.53;;;2.93;;
8803;SDS011;4438;50.890;4.726;2023-04-23T14:46:37;3.07;;;2.70;;
8803;SDS011;4438;50.890;4.726;2023-04-23T14:49:03;4.27;;;2.83;;
8803;SDS011;4438;50.890;4.726;2023-04-23T14:51:29;2.83;;;2.40;;
8803;SDS011;4438;50.890;4.726;2023-04-23T14:53:55;6.17;;;2.70;;
8803;SDS011;4438;50.890;4.726;2023-04-23T14:56:21;3.30;;;2.90;;
8803;SDS011;4438;50.890;4.726;2023-04-23T14:58:47;3.93;;;3.17;;
8803;SDS011;4438;50.890;4.726;2023-04-23T15:01:13;3.10;;;2.80;;
8803;SDS011;4438;50.890;4.726;2023-04-23T15:03:41;3.93;;;3.10;;
8803;SDS011;4438;50.890;4.726;2023-04-23T15:06:08;3.43;;;2.80;;
8803;SDS011;4438;50.890;4.726;2023-04-23T15:08:34;4.90;;;3.27;;
8803;SDS011;4438;50.890;4.726;2023-04-23T15:11:00;3.47;;;2.80;;
8803;SDS011;4438;50.890;4.726;2023-04-23T15:14:16;4.60;;;2.90;;